Time;durP1;ratioP1;P1;durP2;ratioP2;P2;SDS_P1;SDS_P2;PMS_P1;PMS_P2;Temp;Humidity;BMP_temperature;BMP_pressure;BME280_temperature;BME280_humidity;BME280_pressure;Samples;Min_cycle;Max_cycle;Signal;HPM_P1;HPM_P2
2023/03/26 00:07:55;;;;;;;3.80;2.13;;;;;;;7.10;65.45;99058.75;30627621;28;97537;-67
2023/03/26 00:22:55;;;;;;;2.88;2.10;;;;;;;6.98;65.31;99059.34;30631884;28;111715;-69
2023/03/26 00:37:57;;;;;;;4.72;2.45;;;;;;;6.83;66.48;99040.72;30631035;28;96839;-68
2023/03/26 00:52:57;;;;;;;3.88;2.10;;;;;;;6.77;66.36;99039.59;30629331;28;97484;-67
2023/03/26 01:08:24;;;;;;;3.17;1.83;;;;;;;6.63;66.62;99029.72;30628374;28;97139;-64
2023/03/26 01:23:36;;;;;;;3.80;1.60;;;;;;;6.33;67.59;99035.66;30623926;28;97389;-62
2023/03/26 01:38:58;;;;;;;4.32;2.58;;;;;;;6.28;67.66;99029.25;30625816;28;96838;-68
2023/03/26 01:54:01;;;;;;;4.20;2.10;;;;;;;6.43;68.06;99022.22;30624033;28;96676;-62
2023/03/26 02:09:07;;;;;;;7.45;2.60;;;;;;;6.90;68.56;99016.03;30622878;28;97554;-68
2023/03/26 02:24:07;;;;;;;5.55;2.60;;;;;;;7.19;67.96;99019.81;30620940;28;96661;-69
2023/03/26 02:39:09;;;;;;;3.35;2.15;;;;;;;7.42;67.04;99016.28;30620215;28;96682;-69
2023/03/26 02:54:10;;;;;;;3.30;2.17;;;;;;;7.49;66.88;99006.66;30618135;28;97249;-62
2023/03/26 03:09:11;;;;;;;4.25;2.60;;;;;;;7.55;66.51;98999.81;30615929;28;112134;-62
2023/03/26 03:24:12;;;;;;;7.67;3.53;;;;;;;7.50;66.29;99010.13;30615164;28;97076;-62
2023/03/26 03:39:14;;;;;;;4.00;2.63;;;;;;;7.44;66.86;99011.66;30613167;28;98266;-62
2023/03/26 03:54:14;;;;;;;3.07;1.67;;;;;;;7.56;66.84;99027.94;30612456;28;96703;-65
2023/03/26 04:09:15;;;;;;;1.98;1.00;;;;;;;7.70;65.17;99032.47;30611370;28;96721;-67
2023/03/26 04:24:15;;;;;;;1.55;1.10;;;;;;;7.84;64.90;99045.94;30609385;28;96622;-62
2023/03/26 04:39:15;;;;;;;2.22;1.15;;;;;;;7.95;64.51;99045.47;30609701;28;106224;-66
2023/03/26 04:54:19;;;;;;;3.50;1.08;;;;;;;7.86;64.04;99047.41;30622511;28;97555;-68
2023/03/26 05:09:20;;;;;;;1.13;0.60;;;;;;;7.70;64.27;99048.34;30627897;28;96698;-67
2023/03/26 05:24:20;;;;;;;0.93;0.60;;;;;;;7.59;64.52;99051.44;30624566;28;96699;-67
2023/03/26 05:39:24;;;;;;;0.50;0.50;;;;;;;7.68;64.17;99046.88;30624762;28;103109;-62
2023/03/26 05:54:24;;;;;;;1.47;0.90;;;;;;;7.75;64.97;99048.66;30622019;28;96796;-67
2023/03/26 06:09:25;;;;;;;1.73;0.90;;;;;;;7.91;64.64;99057.44;30621063;28;97114;-68
2023/03/26 06:24:25;;;;;;;2.25;1.13;;;;;;;8.39;64.77;99063.25;30618274;28;96672;-62
2023/03/26 06:39:25;;;;;;;2.55;1.30;;;;;;;8.47;64.26;99062.34;30618841;28;96680;-63
2023/03/26 06:54:26;;;;;;;1.70;0.70;;;;;;;8.79;63.31;99057.66;30616628;28;96882;-62
2023/03/26 07:09:29;;;;;;;2.60;1.20;;;;;;;9.05;62.45;99067.75;30615923;28;97090;-63
2023/03/26 07:24:29;;;;;;;2.90;0.97;;;;;;;9.10;61.86;99083.94;30613849;28;97500;-65
2023/03/26 07:39:33;;;;;;;2.85;1.10;;;;;;;8.75;63.09;99077.63;30612234;28;96752;-67
2023/03/26 07:54:33;;;;;;;1.80;1.00;;;;;;;9.51;63.45;99071.03;30611236;28;97429;-64
2023/03/26 08:09:41;;;;;;;1.42;1.10;;;;;;;10.24;62.03;99062.81;30610596;28;96779;-65
2023/03/26 08:25:04;;;;;;;2.43;1.40;;;;;;;10.31;60.27;99045.03;30618457;28;96788;-66
2023/03/26 08:40:05;;;;;;;2.57;1.17;;;;;;;11.67;59.84;99032.69;30628834;28;97486;-67
2023/03/26 08:55:37;;;;;;;1.40;0.80;;;;;;;12.90;54.47;99025.78;30627909;28;96622;-62
2023/03/26 09:11:14;;;;;;;3.70;0.90;;;;;;;17.23;50.51;99010.28;30625910;28;96717;-68
2023/03/26 09:26:24;;;;;;;3.60;0.90;;;;;;;18.57;39.13;99002.25;30624043;28;96703;-67
2023/03/26 09:41:35;;;;;;;1.73;0.70;;;;;;;16.77;42.17;99015.59;30621077;28;96997;-68
2023/03/26 09:56:45;;;;;;;2.60;0.90;;;;;;;17.51;42.42;99027.44;30622242;28;96760;-64
2023/03/26 10:12:12;;;;;;;3.00;0.90;;;;;;;15.77;43.67;99020.19;30620473;28;96681;-63
2023/03/26 10:27:49;;;;;;;2.43;0.90;;;;;;;13.63;44.65;99008.47;30618999;28;96733;-63
2023/03/26 10:43:36;;;;;;;4.50;1.00;;;;;;;16.94;43.79;98993.38;30616559;28;97035;-66
2023/03/26 10:58:36;;;;;;;1.80;0.80;;;;;;;13.21;42.62;98981.38;30615859;28;96708;-63
2023/03/26 11:13:51;;;;;;;4.57;1.08;;;;;;;17.01;40.08;98967.13;30614652;28;97350;-68
2023/03/26 11:29:00;;;;;;;2.83;0.90;;;;;;;35.27;19.74;98953.78;30614284;28;97378;-69
2023/03/26 11:44:11;;;;;;;1.80;0.70;;;;;;;25.42;20.99;98942.06;30611827;28;97059;-66
2023/03/26 11:59:27;;;;;;;2.77;0.90;;;;;;;18.83;28.73;98940.50;30610306;28;96746;-67
2023/03/26 12:14:31;;;;;;;3.83;1.23;;;;;;;17.08;34.10;98930.94;30609283;28;96666;-66
2023/03/26 12:29:33;;;;;;;3.77;1.47;;;;;;;16.73;36.19;98921.16;30608244;28;98608;-61
2023/03/26 12:44:43;;;;;;;3.43;1.33;;;;;;;16.21;37.63;98907.81;30606040;28;97355;-67
2023/03/26 13:00:13;;;;;;;9.43;2.77;;;;;;;16.74;37.18;98900.47;30606377;28;96719;-62
2023/03/26 13:15:16;;;;;;;2.63;1.30;;;;;;;17.64;35.50;98880.88;30618956;28;96701;-67
2023/03/26 13:30:35;;;;;;;2.30;1.23;;;;;;;16.93;36.08;98868.81;30625257;28;96705;-68
2023/03/26 13:45:49;;;;;;;3.53;1.20;;;;;;;15.95;36.37;98867.03;30621685;28;96675;-67
2023/03/26 14:00:57;;;;;;;4.00;1.83;;;;;;;14.77;38.77;98875.88;30621373;28;97400;-61
2023/03/26 14:16:15;;;;;;;3.43;1.47;;;;;;;14.26;40.05;98863.84;30619981;28;97167;-61
2023/03/26 14:31:33;;;;;;;3.43;1.60;;;;;;;13.70;40.88;98851.31;30619348;28;96826;-63
2023/03/26 14:47:03;;;;;;;2.77;1.60;;;;;;;13.43;42.23;98829.38;30617517;28;96780;-68
2023/03/26 15:02:22;;;;;;;3.27;2.23;;;;;;;13.55;42.49;98824.13;30617173;28;97485;-62
2023/03/26 15:17:48;;;;;;;2.70;1.50;;;;;;;13.50;43.44;98827.44;30614619;28;97587;-63
2023/03/26 15:33:16;;;;;;;8.67;2.50;;;;;;;11.81;48.11;98825.38;30612093;28;96888;-65
2023/03/26 15:48:24;;;;;;;3.90;2.13;;;;;;;10.79;51.16;98844.44;30611103;28;96810;-62
2023/03/26 16:03:46;;;;;;;3.87;1.33;;;;;;;8.92;53.74;98828.56;30610465;28;96704;-68
2023/03/26 16:18:55;;;;;;;5.27;2.17;;;;;;;8.92;56.91;98807.31;30609798;28;96708;-68
2023/03/26 16:34:06;;;;;;;7.20;2.87;;;;;;;8.90;59.08;98798.69;30607451;28;97289;-68
2023/03/26 16:49:09;;;;;;;6.17;2.97;;;;;;;8.50;60.19;98785.94;30620696;28;96832;-68
2023/03/26 17:04:22;;;;;;;9.30;3.90;;;;;;;8.18;61.56;98784.59;30626693;28;96737;-65
2023/03/26 17:19:46;;;;;;;24.80;13.37;;;;;;;7.95;62.50;98774.97;30625270;28;97948;-65
2023/03/26 17:34:50;;;;;;;23.03;14.43;;;;;;;7.84;64.24;98783.44;30623689;28;96786;-68
2023/03/26 17:49:58;;;;;;;19.60;11.43;;;;;;;7.82;64.70;98790.75;30623437;28;96642;-62
2023/03/26 18:05:00;;;;;;;14.73;9.03;;;;;;;7.47;65.91;98804.59;30620858;28;96683;-68
2023/03/26 18:20:05;;;;;;;10.13;6.07;;;;;;;7.51;67.37;98805.88;30619303;28;96652;-68
2023/03/26 18:35:20;;;;;;;9.15;5.00;;;;;;;7.51;68.05;98799.78;30618136;28;96629;-68
2023/03/26 18:50:33;;;;;;;6.13;2.87;;;;;;;7.47;68.50;98785.25;30616542;28;96670;-62
2023/03/26 19:05:35;;;;;;;7.80;3.53;;;;;;;7.25;69.30;98769.28;30611340;28;97192;-64
2023/03/26 19:20:40;;;;;;;4.90;2.50;;;;;;;7.15;70.09;98758.97;30607060;28;97676;-64
2023/03/26 19:35:43;;;;;;;9.63;3.50;;;;;;;7.01;69.81;98744.72;30593755;28;97324;-63
2023/03/26 19:50:54;;;;;;;7.97;3.50;;;;;;;6.89;70.78;98736.41;30597151;28;97891;-63
2023/03/26 20:05:55;;;;;;;9.50;4.97;;;;;;;6.96;71.52;98736.50;30603708;28;96698;-66
2023/03/26 20:20:56;;;;;;;22.23;9.13;;;;;;;6.98;71.74;98726.53;30617053;28;97529;-67
2023/03/26 20:35:57;;;;;;;13.68;7.13;;;;;;;7.02;71.99;98703.16;30629331;28;108043;-65
2023/03/26 20:50:57;;;;;;;13.40;6.82;;;;;;;7.13;71.34;98696.59;30627165;28;96869;-64
2023/03/26 21:06:00;;;;;;;14.35;7.05;;;;;;;7.17;71.77;98682.78;30626574;28;103208;-65
2023/03/26 21:21:22;;;;;;;13.10;6.77;;;;;;;7.05;71.34;98689.56;30625763;28;96599;-68
2023/03/26 21:36:22;;;;;;;15.63;7.18;;;;;;;6.80;72.09;98689.84;30625168;28;97839;-67
2023/03/26 21:51:23;;;;;;;10.45;5.93;;;;;;;6.89;72.67;98674.69;30624798;28;96752;-68
2023/03/26 22:06:32;;;;;;;10.55;5.85;;;;;;;6.98;72.72;98668.28;30623940;28;97364;-64
2023/03/26 22:21:34;;;;;;;16.87;6.80;;;;;;;7.00;71.97;98684.81;30621914;28;96653;-65
2023/03/26 22:36:35;;;;;;;14.45;9.20;;;;;;;6.94;72.45;98677.59;30621256;28;96656;-66
2023/03/26 22:51:35;;;;;;;12.88;6.55;;;;;;;7.02;72.01;98684.63;30619036;28;96631;-64
2023/03/26 23:06:36;;;;;;;15.45;5.65;;;;;;;6.97;72.28;98671.97;30618310;28;97071;-64
2023/03/26 23:21:36;;;;;;;9.52;5.20;;;;;;;6.98;72.65;98665.63;30617375;28;97128;-67
2023/03/26 23:36:36;;;;;;;8.13;4.63;;;;;;;6.96;72.21;98680.91;30615673;28;96650;-64
2023/03/26 23:51:37;;;;;;;8.75;4.50;;;;;;;6.91;72.61;98689.38;30612722;28;110388;-65
